Greenwd, Indiana
Current Conditions -  °F | °C
As of 7:54 PM on Friday 28 Nov 2014 (Local Time) from KIND Reporting Station
Overcast Overcast  
Wind Chill: 25°   Ceiling: 21000
Heat Index: 32°   Visibility: 10mi
Dew Point: 22°   Wind: 8mph
Humidity: 66%   Direction: 150°SSE
Pressure: 30.06"   Gusts: NA
Location:  39.5883°N, 86.07°W
Report Text: KIND 290054Z 15007KT 10SM FEW180 OVC210 00/M06 A3006 RMK AO2 SLP189 T00001056
Loading
Personal Weather Stations






























Interactive Weather Map New forecast layout! Learn more

10-Day Weather Forecast

Advertisements
Track Severe Weather on mobile